Aviation Digital Data Service (ADDS)

Output produced by TAFs form (1131 UTC 29 May 2017)
found at http://www.aviationweather.gov/adds/tafs/
 
KRNH 291131Z 2912/3012 29009KT P6SM OVC017 
     FM291500 28014G22KT P6SM VCSH OVC025 
     FM291900 29017G25KT P6SM VCSH OVC040 
     FM300100 27007KT P6SM SCT040 BKN100